createdAt,value
2023-01-13T00:02:31.272Z,3.55
2023-01-13T00:05:54.001Z,3.48
2023-01-13T00:09:06.296Z,3.51
2023-01-13T00:12:24.296Z,3.61
2023-01-13T00:16:01.127Z,3.63
2023-01-13T00:19:16.944Z,3.63
2023-01-13T00:22:41.495Z,3.93
2023-01-13T00:25:57.972Z,3.91
2023-01-13T00:29:25.019Z,4.09
2023-01-13T00:32:49.910Z,3.90
2023-01-13T00:36:07.229Z,4.00
2023-01-13T00:39:18.846Z,3.98
2023-01-13T00:42:54.466Z,4.11
2023-01-13T00:46:14.932Z,3.95
2023-01-13T00:49:36.096Z,4.03
2023-01-13T00:52:57.939Z,4.21
2023-01-13T00:56:39.045Z,4.11
2023-01-13T00:59:49.989Z,4.17
2023-01-13T01:02:55.742Z,4.13
2023-01-13T01:06:06.940Z,4.24
2023-01-13T01:09:18.715Z,4.14
2023-01-13T01:12:29.537Z,3.94
2023-01-13T01:15:55.814Z,3.99
2023-01-13T01:19:12.775Z,4.05
2023-01-13T01:22:30.296Z,3.98
2023-01-13T01:25:58.775Z,3.96
2023-01-13T01:29:22.699Z,3.91
2023-01-13T01:32:48.878Z,3.70
2023-01-13T01:36:03.554Z,3.34
2023-01-13T01:39:26.768Z,3.28
2023-01-13T01:43:08.644Z,3.67
2023-01-13T01:46:29.589Z,3.95
2023-01-13T01:49:37.622Z,3.93
2023-01-13T01:52:45.655Z,3.93
2023-01-13T01:55:50.056Z,3.57
2023-01-13T01:58:57.871Z,3.37
2023-01-13T02:02:07.122Z,3.35
2023-01-13T02:05:28.687Z,3.26
2023-01-13T02:08:46.796Z,3.32
2023-01-13T02:12:32.794Z,3.13
2023-01-13T02:15:59.374Z,3.19
2023-01-13T02:19:57.406Z,3.35
2023-01-13T02:24:05.032Z,3.57
2023-01-13T02:28:20.849Z,3.48
2023-01-13T02:31:47.669Z,3.35
2023-01-13T02:35:20.632Z,3.33
2023-01-13T02:38:33.401Z,3.36
2023-01-13T02:42:25.532Z,3.24
2023-01-13T02:45:42.762Z,3.36
2023-01-13T02:48:54.407Z,3.19
2023-01-13T02:52:18.880Z,3.01
2023-01-13T02:55:47.148Z,3.12
2023-01-13T02:58:56.858Z,3.24
2023-01-13T03:02:13.852Z,3.29
2023-01-13T03:05:28.707Z,3.32
2023-01-13T03:09:07.644Z,3.43
2023-01-13T03:12:38.446Z,3.46
2023-01-13T03:16:24.628Z,3.41
2023-01-13T03:19:49.025Z,3.29
2023-01-13T03:23:28.451Z,3.26
2023-01-13T03:26:48.493Z,3.22
2023-01-13T03:30:04.616Z,3.18
2023-01-13T03:33:35.446Z,3.24
2023-01-13T03:37:13.474Z,3.18
2023-01-13T03:40:48.901Z,3.19
2023-01-13T03:44:55.755Z,3.27
2023-01-13T03:48:24.454Z,3.54
2023-01-13T03:51:49.544Z,3.61
2023-01-13T03:55:20.230Z,3.64
2023-01-13T03:58:45.247Z,3.69
2023-01-13T04:02:04.385Z,3.75
2023-01-13T04:05:26.084Z,3.90
2023-01-13T04:08:44.178Z,3.70
2023-01-13T04:12:20.330Z,3.86
2023-01-13T04:15:41.205Z,4.01
2023-01-13T04:18:55.429Z,3.82
2023-01-13T04:22:16.143Z,3.87
2023-01-13T04:25:37.110Z,3.88
2023-01-13T04:28:55.108Z,3.79
2023-01-13T04:32:21.389Z,3.89
2023-01-13T04:35:50.946Z,3.84
2023-01-13T04:39:15.061Z,3.90
2023-01-13T04:42:26.728Z,4.00
2023-01-13T04:45:42.488Z,3.76
2023-01-13T04:48:59.203Z,3.81
2023-01-13T04:52:37.042Z,4.17
2023-01-13T04:55:50.138Z,4.17
2023-01-13T04:59:13.191Z,4.21
2023-01-13T05:02:40.358Z,3.78
2023-01-13T05:06:00.282Z,3.90
2023-01-13T05:09:17.908Z,3.96
2023-01-13T05:13:00.286Z,3.89
2023-01-13T05:16:36.555Z,3.86
2023-01-13T05:19:40.929Z,3.84
2023-01-13T05:23:09.088Z,3.59
2023-01-13T05:26:23.187Z,3.69
2023-01-13T05:29:32.183Z,4.00
2023-01-13T05:32:55.194Z,3.60
2023-01-13T05:36:27.208Z,3.64
2023-01-13T05:39:58.265Z,3.58
2023-01-13T05:43:25.734Z,3.56
2023-01-13T05:46:33.734Z,3.60
2023-01-13T05:49:57.068Z,3.70
2023-01-13T05:53:14.263Z,3.80
2023-01-13T05:56:34.100Z,3.66
2023-01-13T06:00:03.991Z,3.63
2023-01-13T06:03:25.520Z,3.60
2023-01-13T06:06:50.534Z,3.57
2023-01-13T06:10:12.572Z,3.50
2023-01-13T06:13:28.388Z,3.70
2023-01-13T06:16:49.248Z,3.69
2023-01-13T06:19:52.964Z,3.63
2023-01-13T06:22:59.564Z,3.54
2023-01-13T06:26:23.173Z,3.38
2023-01-13T06:29:35.804Z,3.42
2023-01-13T06:32:55.857Z,3.32
2023-01-13T06:36:19.044Z,3.33
2023-01-13T06:39:38.914Z,3.48
2023-01-13T06:43:16.350Z,3.39
2023-01-13T06:46:21.237Z,3.51
2023-01-13T06:49:28.044Z,3.58
2023-01-13T06:52:51.563Z,3.69
2023-01-13T06:56:34.226Z,3.56
2023-01-13T06:59:38.139Z,3.62
2023-01-13T07:03:02.587Z,3.76
2023-01-13T07:06:36.962Z,3.89
2023-01-13T07:10:02.992Z,3.80
2023-01-13T07:13:58.044Z,3.84
2023-01-13T07:17:53.114Z,3.85
2023-01-13T07:26:06.870Z,4.08
2023-01-13T07:29:23.307Z,4.35
2023-01-13T07:32:41.232Z,4.23
2023-01-13T07:35:49.148Z,4.31
2023-01-13T07:38:54.823Z,4.46
2023-01-13T07:42:16.919Z,4.32
2023-01-13T07:45:27.781Z,4.45
2023-01-13T07:48:47.056Z,4.43
2023-01-13T07:52:37.595Z,4.58
2023-01-13T07:56:48.991Z,4.46
2023-01-13T08:01:09.279Z,4.46
2023-01-13T08:04:35.200Z,4.60
2023-01-13T08:07:39.041Z,4.54
2023-01-13T08:11:03.344Z,4.67
2023-01-13T08:14:41.616Z,4.28
2023-01-13T08:17:46.631Z,4.54
2023-01-13T08:20:55.568Z,4.67
2023-01-13T08:24:02.376Z,4.71
2023-01-13T08:27:12.809Z,4.56
2023-01-13T08:30:17.346Z,4.69
2023-01-13T08:33:21.301Z,4.76
2023-01-13T08:37:35.495Z,4.70
2023-01-13T08:41:47.958Z,4.74
2023-01-13T08:51:02.884Z,4.79
2023-01-13T08:54:37.844Z,4.69
2023-01-13T09:02:24.595Z,4.96
2023-01-13T09:05:53.943Z,5.13
2023-01-13T09:08:59.029Z,4.86
2023-01-13T09:13:12.404Z,4.70
2023-01-13T09:16:20.499Z,4.60
2023-01-13T09:19:30.036Z,4.58
2023-01-13T09:22:38.406Z,4.91
2023-01-13T09:25:45.569Z,4.80
2023-01-13T09:29:01.663Z,4.66
2023-01-13T09:32:32.698Z,4.76
2023-01-13T09:35:51.420Z,4.57
2023-01-13T09:39:16.574Z,4.58
2023-01-13T09:53:04.950Z,4.81
2023-01-13T09:56:11.650Z,4.95
2023-01-13T09:59:28.638Z,5.41
2023-01-13T10:03:12.903Z,5.11
2023-01-13T10:06:50.331Z,4.69
2023-01-13T10:10:05.713Z,4.52
2023-01-13T10:13:31.526Z,4.54
2023-01-13T10:17:18.223Z,4.66
2023-01-13T10:20:48.574Z,4.80
2023-01-13T10:24:22.659Z,4.93
2023-01-13T10:27:33.431Z,4.66
2023-01-13T10:30:48.214Z,4.60
2023-01-13T10:34:05.624Z,5.18
2023-01-13T10:38:09.969Z,5.36
2023-01-13T10:41:29.107Z,5.40
2023-01-13T10:50:21.957Z,4.60
2023-01-13T10:53:40.196Z,4.97
2023-01-13T10:57:48.437Z,5.30
2023-01-13T11:02:26.005Z,4.88
2023-01-13T11:11:50.782Z,4.77
2023-01-13T11:15:04.689Z,4.81
2023-01-13T11:18:19.543Z,4.49
2023-01-13T11:21:34.822Z,4.30
2023-01-13T11:25:14.768Z,4.21
2023-01-13T11:28:46.695Z,4.36
2023-01-13T11:31:55.231Z,4.26
2023-01-13T11:35:14.902Z,4.35
2023-01-13T11:38:53.992Z,4.34
2023-01-13T11:42:24.268Z,4.19
2023-01-13T11:46:11.112Z,4.17
2023-01-13T11:49:47.702Z,4.49
2023-01-13T11:53:33.597Z,4.62
2023-01-13T11:57:11.818Z,4.29
2023-01-13T12:05:28.922Z,4.75
2023-01-13T12:09:06.169Z,4.84
2023-01-13T12:12:43.036Z,4.68
2023-01-13T12:16:09.970Z,4.83
2023-01-13T12:19:30.919Z,4.82
2023-01-13T12:22:46.826Z,4.71
2023-01-13T12:25:57.162Z,4.94
2023-01-13T12:29:26.818Z,4.88
2023-01-13T12:32:39.846Z,4.81
2023-01-13T12:36:40.147Z,4.82
2023-01-13T12:40:08.103Z,5.11
2023-01-13T12:43:38.572Z,4.84
2023-01-13T12:47:03.199Z,4.88
2023-01-13T12:50:29.326Z,4.86
2023-01-13T12:53:35.922Z,4.96
2023-01-13T12:56:46.414Z,5.17
2023-01-13T13:00:17.614Z,5.66
2023-01-13T13:08:38.461Z,5.66
2023-01-13T13:11:58.488Z,5.51
2023-01-13T13:15:22.116Z,5.35
2023-01-13T13:18:30.796Z,5.37
2023-01-13T13:22:19.326Z,5.28
2023-01-13T13:25:28.594Z,5.43
2023-01-13T13:29:42.344Z,5.23
2023-01-13T13:33:46.004Z,5.11
2023-01-13T13:41:55.428Z,5.13
2023-01-13T13:45:46.319Z,5.09
2023-01-13T13:48:53.259Z,5.19
2023-01-13T13:52:16.227Z,5.56
2023-01-13T13:55:29.003Z,5.47
2023-01-13T13:58:36.793Z,5.70
2023-01-13T14:01:44.224Z,5.68
2023-01-13T14:05:15.515Z,5.61
2023-01-13T14:08:28.175Z,5.71
2023-01-13T14:11:33.725Z,5.89
2023-01-13T14:14:51.119Z,5.88
2023-01-13T14:17:54.606Z,5.69
2023-01-13T14:21:22.466Z,5.42
2023-01-13T14:24:26.800Z,5.38
2023-01-13T14:27:31.335Z,5.46
2023-01-13T14:30:50.880Z,5.37
2023-01-13T14:33:57.602Z,5.49
2023-01-13T14:37:25.968Z,5.60
2023-01-13T14:40:50.312Z,5.84
2023-01-13T14:44:10.678Z,5.86
2023-01-13T14:47:32.368Z,6.08
2023-01-13T14:50:37.080Z,6.02
2023-01-13T14:53:47.607Z,6.18
2023-01-13T14:56:53.928Z,6.21
2023-01-13T15:00:26.297Z,6.01
2023-01-13T15:03:42.349Z,6.11
2023-01-13T15:06:54.697Z,5.77
2023-01-13T15:10:05.177Z,5.72
2023-01-13T15:18:20.492Z,5.85
2023-01-13T15:21:30.925Z,6.03
2023-01-13T15:24:36.950Z,5.89
2023-01-13T15:28:41.421Z,5.72
2023-01-13T15:32:27.346Z,5.92
2023-01-13T15:35:47.481Z,5.84
2023-01-13T15:38:58.392Z,5.72
2023-01-13T15:42:20.653Z,5.73
2023-01-13T15:46:01.337Z,5.77
2023-01-13T15:49:26.476Z,5.77
2023-01-13T15:52:40.661Z,5.83
2023-01-13T15:56:01.479Z,5.79
2023-01-13T15:59:10.770Z,6.00
2023-01-13T16:02:22.889Z,5.84
2023-01-13T16:05:26.521Z,5.68
2023-01-13T16:08:42.484Z,5.77
2023-01-13T16:12:11.399Z,5.80
2023-01-13T16:15:25.046Z,5.68
2023-01-13T16:18:28.126Z,5.72
2023-01-13T16:21:31.779Z,5.69
2023-01-13T16:24:43.510Z,5.78
2023-01-13T16:27:53.478Z,5.87
2023-01-13T16:30:56.699Z,5.85
2023-01-13T16:34:02.230Z,5.88
2023-01-13T16:37:18.971Z,5.98
2023-01-13T16:40:45.052Z,5.72
2023-01-13T16:43:48.924Z,5.84
2023-01-13T16:46:52.895Z,5.93
2023-01-13T16:49:55.876Z,5.96
2023-01-13T16:53:17.662Z,6.02
2023-01-13T16:56:37.083Z,5.85
2023-01-13T16:59:59.500Z,6.16
2023-01-13T17:03:20.296Z,6.08
2023-01-13T17:06:39.374Z,6.30
2023-01-13T17:09:55.221Z,6.46
2023-01-13T17:13:14.835Z,6.55
2023-01-13T17:16:23.081Z,6.41
2023-01-13T17:19:32.202Z,6.36
2023-01-13T17:22:58.783Z,6.32
2023-01-13T17:26:22.293Z,6.69
2023-01-13T17:29:27.395Z,6.73
2023-01-13T17:32:50.264Z,6.73
2023-01-13T17:36:11.058Z,6.88
2023-01-13T17:39:28.155Z,6.91
2023-01-13T17:42:33.706Z,6.97
2023-01-13T17:45:45.098Z,6.98
2023-01-13T17:48:53.998Z,6.99
2023-01-13T17:52:00.785Z,6.95
2023-01-13T17:55:11.682Z,6.90
2023-01-13T17:58:21.736Z,7.02
2023-01-13T18:01:43.263Z,7.02
2023-01-13T18:04:56.168Z,6.99
2023-01-13T18:08:19.296Z,6.97
2023-01-13T18:11:50.272Z,6.89
2023-01-13T18:15:12.088Z,6.92
2023-01-13T18:18:34.134Z,7.00
2023-01-13T18:21:55.639Z,7.00
2023-01-13T18:25:31.156Z,7.00
2023-01-13T18:28:42.156Z,6.99
2023-01-13T18:32:04.055Z,7.00
2023-01-13T18:35:27.057Z,6.95
2023-01-13T18:38:44.155Z,6.88
2023-01-13T18:42:17.317Z,6.85
2023-01-13T18:45:33.169Z,6.75
2023-01-13T18:48:48.975Z,6.44
2023-01-13T18:52:09.278Z,6.54
2023-01-13T18:55:28.998Z,6.33
2023-01-13T18:58:51.018Z,6.48
2023-01-13T19:01:54.213Z,6.51
2023-01-13T19:04:57.970Z,6.67
2023-01-13T19:08:19.595Z,6.91
2023-01-13T19:11:39.156Z,6.67
2023-01-13T19:14:57.957Z,6.39
2023-01-13T19:18:16.883Z,6.45
2023-01-13T19:21:20.640Z,6.35
2023-01-13T19:24:26.112Z,6.43
2023-01-13T19:27:33.459Z,6.62
2023-01-13T19:30:36.780Z,6.82
2023-01-13T19:33:44.136Z,6.54
2023-01-13T19:37:01.093Z,6.44
2023-01-13T19:40:22.878Z,6.61
2023-01-13T19:43:53.075Z,6.71
2023-01-13T19:47:13.713Z,6.51
2023-01-13T19:50:32.796Z,6.57
2023-01-13T19:53:54.824Z,6.61
2023-01-13T19:57:12.036Z,6.93
2023-01-13T20:00:30.623Z,7.08
2023-01-13T20:03:50.771Z,7.12
2023-01-13T20:06:55.094Z,7.16
2023-01-13T20:10:11.291Z,6.91
2023-01-13T20:13:19.128Z,6.64
2023-01-13T20:16:36.106Z,6.64
2023-01-13T20:20:05.801Z,6.63
2023-01-13T20:23:23.883Z,6.59
2023-01-13T20:26:53.740Z,6.69
2023-01-13T20:30:30.787Z,6.58
2023-01-13T20:33:50.949Z,6.37
2023-01-13T20:37:01.520Z,6.40
2023-01-13T20:40:27.726Z,6.38
2023-01-13T20:43:44.791Z,6.43
2023-01-13T20:46:54.568Z,6.75
2023-01-13T20:50:10.924Z,7.01
2023-01-13T20:53:15.164Z,7.05
2023-01-13T20:56:18.282Z,7.15
2023-01-13T20:59:39.802Z,6.76
2023-01-13T21:02:44.090Z,7.01
2023-01-13T21:05:47.664Z,6.56
2023-01-13T21:08:53.409Z,6.54
2023-01-13T21:12:32.519Z,6.70
2023-01-13T21:15:48.440Z,6.42
2023-01-13T21:19:08.283Z,6.41
2023-01-13T21:22:17.267Z,6.21
2023-01-13T21:25:35.371Z,6.25
2023-01-13T21:28:39.215Z,6.21
2023-01-13T21:31:44.275Z,6.17
2023-01-13T21:34:59.071Z,5.99
2023-01-13T21:38:02.876Z,5.98
2023-01-13T21:41:08.125Z,5.96
2023-01-13T21:44:47.392Z,6.30
2023-01-13T21:47:50.814Z,6.34
2023-01-13T21:51:13.324Z,5.93
2023-01-13T21:54:32.032Z,5.95
2023-01-13T21:57:53.607Z,6.53
2023-01-13T22:01:15.001Z,6.60
2023-01-13T22:04:35.690Z,6.12
2023-01-13T22:08:05.457Z,6.08
2023-01-13T22:11:27.547Z,6.43
2023-01-13T22:14:49.449Z,6.74
2023-01-13T22:18:11.485Z,6.55
2023-01-13T22:21:14.814Z,6.32
2023-01-13T22:24:18.293Z,6.25
2023-01-13T22:27:45.471Z,6.42
2023-01-13T22:31:30.535Z,6.54
2023-01-13T22:34:57.674Z,6.52
2023-01-13T22:38:19.494Z,6.75
2023-01-13T22:41:48.440Z,6.84
2023-01-13T22:45:12.535Z,6.73
2023-01-13T22:48:34.497Z,6.76
2023-01-13T22:51:57.418Z,6.71
2023-01-13T22:55:18.505Z,6.61
2023-01-13T22:58:41.471Z,6.58
2023-01-13T23:02:02.453Z,6.45
2023-01-13T23:05:05.954Z,6.33
2023-01-13T23:08:13.922Z,6.22
2023-01-13T23:11:24.923Z,6.02
2023-01-13T23:14:34.131Z,6.04
2023-01-13T23:17:37.243Z,5.93
2023-01-13T23:20:41.845Z,5.94
2023-01-13T23:23:45.279Z,6.45
2023-01-13T23:26:52.532Z,6.44
2023-01-13T23:29:59.512Z,6.46
2023-01-13T23:33:20.194Z,6.64
2023-01-13T23:36:42.086Z,6.41
2023-01-13T23:40:02.978Z,6.45
2023-01-13T23:43:07.040Z,6.49
2023-01-13T23:46:17.835Z,6.67
2023-01-13T23:49:20.942Z,6.66
2023-01-13T23:52:27.809Z,6.33
2023-01-13T23:55:31.510Z,6.25
2023-01-13T23:58:35.480Z,6.36
